Mc Grath, Alaska
Current Conditions -  °F | °C
As of 12:53 AM on Thursday 23 Oct 2014 (Local Time) from PAMC Reporting Station
Broken Clouds Broken Clouds  
Wind Chill: -6°   Ceiling: 6000
Heat Index: -2°   Visibility: 10mi
Dew Point: -7°   Wind: 6mph
Humidity: 72%   Direction: 350°N
Pressure: 29.8"   Gusts: NA
Location:  63.1005°N, 155.153°W
Report Text: PAMC 230853Z 35005KT 10SM SCT044 BKN060 M02/M07 A2980 RMK SLP100 T10221067 400061094 53012 VIA AUTODIAL
Loading
Personal Weather Stations






























Interactive Weather Map
Tropical Storm Tracking
New forecast layout! Learn more

10-Day Weather Forecast

Advertisements
Track Severe Weather on mobile